Gustavus, AK

4:02 AM AKDT on July 23, 2014 (GMT -0800)
Haines (PAHN) Elev 16 ft | 59.24 °N, 135.51 °W | Change Station

Current weather conditions updated 8 minutes ago

Overcast
Overcast
58 °F
Feels Like 58 °F
N
5
Wind Variable Wind from East

Today is forecast to be Much Cooler than yesterday. Late day light rain.

Today
High -- | Low -- °F
--% Chance of Precip.
Yesterday
High -- | Low -- °F
Precip. -- in
4:37 AM 9:49 PM
Waning Crescent, 11% visible
Pressure 30.01 in
Visibility 10.0 miles
Clouds Overcast 1400 ft
Dew Point 52 °F
Humidity 81%
Rainfall 0.00 in
Snow Depth Not available.
UV 0 out of 12
Pollen Not available.
Air Quality Not available.
Flu Activity Not available.
METAR PAHN 231154Z AUTO 09004KT 10SM OVC014 14/11 A3001 RMK AO2 SLP163 T01440111 10172 20144 50004 TSNO

More Conditions Fewer Conditions

Pressure 30.01 in
Visibility 10.0 miles
Clouds Overcast 1400 ft
Dew Point 52 °F
Humidity 81%
Rainfall 0.00 in
Snow Depth Not available.
UV 0 out of 12
Pollen Not available.
Air Quality Not available.
Flu Activity Not available.
METAR PAHN 231154Z AUTO 09004KT 10SM OVC014 14/11 A3001 RMK AO2 SLP163 T01440111 10172 20144 50004 TSNO

More Conditions Fewer Conditions

10-Day Weather Forecast

Almanac

Astronomy

Jul. 23, 2014 Rise Set
Actual Time 4:37 AM AKDT 9:49 PM AKDT
Civil Twilight 3:35 AM AKDT 10:51 PM AKDT
Nautical Twilight 1:46 AM AKDT 12:41 AM AKDT
Astronomical Twilight Sun does not rise Sun does not rise
Moon 2:10 AM AKDT 7:17 PM AKDT
Length of Visible Light 19h 16m
Length of Day
17h 12m
Tomorrow will be 4m 5s shorter.
Waning Crescent, 11% of the Moon is Illuminated
Today
Waning Crescent
Jul 26
New
Aug 3
First Quarter
Aug 10
Full
Aug 17
Last Quarter

Today's Extremes

State Highs State Lows

Community

WunderPhotos

Upload Photos

1,736,566 photos uploaded!

Nearby

Snow Depth

Station Depth Elevation
Long Lake 0 in 820 ft
Upper Tsaina River 0 in 1750 ft
Moraine 0 in 2100 ft
Grandview 3 in 1100 ft
Grouse Creek Divide 0 in 700 ft

Earthquake Activity

City Distance Mag. Time & Date
No recent earthquake activity has been reported nearby.
Minimum magnitude displayed is 2.5.

Coastal Water Temperatures

Place Temperature
No Stations Reporting

Nearby Weather Stations

There are no personal weather stations in this area.